Time;durP1;ratioP1;P1;durP2;ratioP2;P2;SDS_P1;SDS_P2;PMS_P1;PMS_P2;Temp;Humidity;BMP_temperature;BMP_pressure;BME280_temperature;BME280_humidity;BME280_pressure;Samples;Min_cycle;Max_cycle;Signal;HPM_P1;HPM_P2
2022/12/27 00:01:55;;;;;;;7.47;1.90;;;12.50;56.70;;;;;;5078620;28;20090;-75
2022/12/27 00:04:21;;;;;;;9.77;1.75;;;12.50;56.80;;;;;;5096805;28;20138;-75
2022/12/27 00:06:47;;;;;;;6.55;1.63;;;12.50;56.80;;;;;;5096056;28;20126;-74
2022/12/27 00:09:13;;;;;;;8.05;1.90;;;12.50;56.80;;;;;;5089373;28;20124;-76
2022/12/27 00:11:39;;;;;;;7.18;1.58;;;12.50;56.80;;;;;;5076282;28;20374;-75
2022/12/27 00:14:06;;;;;;;11.65;2.47;;;12.50;56.80;;;;;;5075740;28;20059;-74
2022/12/27 00:16:33;;;;;;;8.02;2.10;;;12.50;56.80;;;;;;5075486;28;20054;-75
2022/12/27 00:18:59;;;;;;;9.02;1.85;;;12.50;56.80;;;;;;5078194;28;20036;-74
2022/12/27 00:21:25;;;;;;;7.57;1.60;;;12.50;56.80;;;;;;5096307;28;20097;-74
2022/12/27 00:23:53;;;;;;;8.75;1.95;;;12.50;56.80;;;;;;5095482;28;20469;-76
2022/12/27 00:26:30;;;;;;;8.18;2.20;;;12.40;56.90;;;;;;5078536;28;20075;-74
2022/12/27 00:28:57;;;;;;;10.35;2.25;;;12.40;57.00;;;;;;5075232;28;20379;-76
2022/12/27 00:31:24;;;;;;;8.38;1.70;;;12.40;57.10;;;;;;5075835;28;20048;-74
2022/12/27 00:33:52;;;;;;;8.68;1.80;;;12.40;57.10;;;;;;5075351;28;20139;-76
2022/12/27 00:36:22;;;;;;;10.05;2.03;;;12.40;57.80;;;;;;5075067;28;20048;-75
2022/12/27 00:38:49;;;;;;;7.50;1.67;;;12.40;57.10;;;;;;5058578;28;20149;-75
2022/12/27 00:41:15;;;;;;;10.63;1.73;;;12.40;57.20;;;;;;5078157;28;20342;-75
2022/12/27 00:43:42;;;;;;;7.10;1.38;;;12.40;57.20;;;;;;5095256;28;20076;-76
2022/12/27 00:46:08;;;;;;;6.07;1.77;;;12.40;57.10;;;;;;5095570;28;20048;-73
2022/12/27 00:48:34;;;;;;;6.05;1.45;;;12.40;57.10;;;;;;5095388;28;20050;-74
2022/12/27 00:51:03;;;;;;;6.57;1.63;;;12.40;57.10;;;;;;5075807;28;20394;-75
2022/12/27 00:53:29;;;;;;;9.80;1.80;;;12.30;57.10;;;;;;5057104;28;20041;-75
2022/12/27 00:55:56;;;;;;;6.30;1.63;;;12.30;57.20;;;;;;5057638;28;20049;-75
2022/12/27 00:58:21;;;;;;;10.57;1.75;;;12.30;57.20;;;;;;5074766;28;20056;-74
2022/12/27 01:00:48;;;;;;;5.13;1.95;;;12.30;57.20;;;;;;5092283;28;20044;-76
2022/12/27 01:03:14;;;;;;;8.77;1.80;;;12.30;57.20;;;;;;5077688;28;20040;-75
2022/12/27 01:05:40;;;;;;;7.68;1.63;;;12.30;57.30;;;;;;5095238;28;20074;-75
2022/12/27 01:08:06;;;;;;;6.70;1.33;;;12.30;57.40;;;;;;5095360;28;20459;-73
2022/12/27 01:10:32;;;;;;;5.90;1.35;;;12.30;57.40;;;;;;5079784;28;20044;-73
2022/12/27 01:13:00;;;;;;;8.90;1.70;;;12.30;57.70;;;;;;5057291;28;20132;-76
2022/12/27 01:15:27;;;;;;;6.95;1.30;;;12.30;57.50;;;;;;5057876;28;20076;-75
2022/12/27 01:17:52;;;;;;;6.20;1.67;;;12.30;57.50;;;;;;5074758;28;20097;-74
2022/12/27 01:20:18;;;;;;;7.57;2.08;;;12.30;57.60;;;;;;5087356;28;20040;-74
2022/12/27 01:22:44;;;;;;;9.38;1.83;;;12.30;57.60;;;;;;5094364;28;20165;-75
2022/12/27 01:25:10;;;;;;;8.27;2.03;;;12.30;57.60;;;;;;5094759;28;20189;-75
2022/12/27 01:27:36;;;;;;;8.15;1.70;;;12.30;57.60;;;;;;5094745;28;20435;-76
2022/12/27 01:30:05;;;;;;;10.43;2.28;;;12.20;57.60;;;;;;5072676;28;20052;-75
2022/12/27 01:32:32;;;;;;;9.57;2.08;;;12.20;57.60;;;;;;5074837;28;20132;-73
2022/12/27 01:34:58;;;;;;;6.38;1.73;;;12.20;57.60;;;;;;5074805;28;20049;-76
2022/12/27 01:37:27;;;;;;;5.47;1.45;;;12.20;57.70;;;;;;5056704;28;20466;-74
2022/12/27 01:39:52;;;;;;;10.15;2.13;;;12.20;57.80;;;;;;5074235;28;20359;-76
2022/12/27 01:45:14;;;;;;;11.70;1.58;;;12.20;58.30;;;;;;5074850;28;20401;-74
2022/12/27 01:48:02;;;;;;;7.28;1.38;;;12.20;57.70;;;;;;5074094;28;20551;-74
2022/12/27 01:50:36;;;;;;;7.55;1.48;;;12.20;57.60;;;;;;5074303;28;20044;-75
2022/12/27 01:53:08;;;;;;;8.10;2.03;;;12.20;57.70;;;;;;5074638;28;20056;-75
2022/12/27 01:55:47;;;;;;;6.97;1.55;;;12.20;57.70;;;;;;5074468;28;20041;-75
2022/12/27 01:58:27;;;;;;;8.30;2.00;;;12.20;57.70;;;;;;5074166;28;20466;-76
2022/12/27 02:00:53;;;;;;;5.97;1.60;;;12.10;57.70;;;;;;5074847;28;20036;-74
2022/12/27 02:03:36;;;;;;;7.45;1.60;;;12.20;57.90;;;;;;5074686;28;20044;-74
2022/12/27 02:06:04;;;;;;;5.85;1.40;;;12.10;57.80;;;;;;5044016;28;20107;-76
2022/12/27 02:09:04;;;;;;;7.68;1.75;;;12.10;57.90;;;;;;5078150;28;20044;-75
2022/12/27 02:12:05;;;;;;;6.88;1.48;;;12.10;57.90;;;;;;5077829;28;20049;-75
2022/12/27 02:14:41;;;;;;;5.15;1.15;;;12.10;57.80;;;;;;5055760;28;20051;-76
2022/12/27 02:17:15;;;;;;;8.60;1.20;;;12.10;57.80;;;;;;5077466;28;20057;-75
2022/12/27 02:19:41;;;;;;;;;;;12.10;57.90;;;;;;5078456;28;20106;-75
2022/12/27 02:25:47;;;;;;;6.93;1.38;;;12.10;58.10;;;;;;5077420;28;20049;-76
2022/12/27 02:28:43;;;;;;;6.40;1.10;;;12.10;58.10;;;;;;5041476;28;20053;-74
2022/12/27 02:31:18;;;;;;;5.18;1.58;;;12.10;58.10;;;;;;5095709;28;20071;-76
2022/12/27 02:33:47;;;;;;;8.57;1.52;;;12.10;58.10;;;;;;5097415;28;20048;-75
2022/12/27 02:36:23;;;;;;;8.55;1.80;;;12.00;58.10;;;;;;5080054;28;20116;-73
2022/12/27 02:38:54;;;;;;;10.25;2.35;;;12.00;58.20;;;;;;5098047;28;20130;-74
2022/12/27 02:57:07;;;;;;;9.25;1.70;;;12.00;58.90;;;;;;5095942;28;20048;-76
2022/12/27 02:58:47;;;;;;;10.32;2.55;;;12.00;59.10;;;;;;5059168;28;20048;-76
2022/12/27 03:04:09;;;;;;;;;;;12.10;59.50;;;;;;5040564;28;20053;-75
2022/12/27 03:06:54;;;;;;;8.93;1.75;;;12.10;59.50;;;;;;5056223;28;19928;-76
2022/12/27 03:18:06;;;;;;;5.13;1.42;;;12.30;60.20;;;;;;5059338;28;20064;-75
2022/12/27 03:26:05;;;;;;;6.15;1.48;;;12.40;60.50;;;;;;5056273;28;20061;-76
2022/12/27 03:34:52;;;;;;;8.15;1.88;;;12.50;61.00;;;;;;5056339;28;20136;-76
2022/12/27 03:43:09;;;;;;;4.03;0.98;;;12.50;61.10;;;;;;5055739;28;20053;-73
2022/12/27 03:43:29;;;;;;;5.18;1.38;;;12.50;61.20;;;;;;5015451;28;20052;-74
2022/12/27 03:48:50;;;;;;;7.70;1.35;;;12.60;61.40;;;;;;5038797;28;20053;-76
2022/12/27 03:51:20;;;;;;;4.80;1.10;;;12.60;61.60;;;;;;5055866;28;20060;-78
2022/12/27 03:53:49;;;;;;;7.97;1.77;;;12.60;61.60;;;;;;5056163;28;20053;-78
2022/12/27 03:56:16;;;;;;;4.63;0.90;;;12.60;61.70;;;;;;5061340;28;20052;-76
2022/12/27 03:58:42;;;;;;;4.47;1.50;;;12.60;61.70;;;;;;5076152;28;20075;-76
2022/12/27 04:01:07;;;;;;;7.45;1.67;;;12.60;61.70;;;;;;5085819;28;20458;-77
2022/12/27 04:03:33;;;;;;;4.57;1.20;;;12.60;61.80;;;;;;5096609;28;20461;-75
2022/12/27 04:05:59;;;;;;;5.47;1.00;;;12.60;61.90;;;;;;5095796;28;20036;-76
2022/12/27 04:35:48;;;;;;;9.57;1.63;;;12.70;63.20;;;;;;5082546;28;20386;-77
2022/12/27 04:38:13;;;;;;;9.02;1.63;;;12.80;63.60;;;;;;5095438;28;20039;-75
2022/12/27 04:55:10;;;;;;;9.90;1.48;;;13.70;63.00;;;;;;5080310;28;20047;-79
2022/12/27 04:57:36;;;;;;;8.90;1.35;;;13.90;63.00;;;;;;5083130;28;20044;-80
2022/12/27 05:02:52;;;;;;;17.55;1.65;;;14.10;63.00;;;;;;5047206;28;20047;-76
2022/12/27 05:05:19;;;;;;;10.35;1.50;;;14.20;62.80;;;;;;5084070;28;20382;-76
2022/12/27 05:15:57;;;;;;;;;;;14.50;63.20;;;;;;5084844;28;20084;-79
2022/12/27 05:18:23;;;;;;;10.85;2.05;;;14.60;63.90;;;;;;5049846;28;19963;-77
2022/12/27 05:20:49;;;;;;;10.15;1.38;;;14.70;63.90;;;;;;5078138;28;20090;-78
2022/12/27 05:25:59;;;;;;;13.40;2.40;;;14.90;63.80;;;;;;5074983;28;20061;-78
2022/12/27 05:28:25;;;;;;;10.52;1.73;;;14.90;63.80;;;;;;5080163;28;20032;-78
2022/12/27 05:30:51;;;;;;;18.55;2.42;;;15.00;63.80;;;;;;5085385;28;20234;-80
2022/12/27 05:33:17;;;;;;;10.30;1.67;;;15.10;63.70;;;;;;5057552;28;20124;-79
2022/12/27 05:35:43;;;;;;;11.00;1.80;;;15.10;63.50;;;;;;5074907;28;20053;-75
2022/12/27 05:38:09;;;;;;;7.85;1.95;;;15.20;63.50;;;;;;5074508;28;20054;-80
2022/12/27 05:40:35;;;;;;;14.15;2.17;;;15.20;63.50;;;;;;5077971;28;20470;-80
2022/12/27 05:43:02;;;;;;;26.90;2.22;;;15.30;63.70;;;;;;5061206;28;20048;-79
2022/12/27 05:45:28;;;;;;;14.07;2.78;;;15.30;63.70;;;;;;5076254;28;20055;-78
2022/12/27 05:47:53;;;;;;;10.00;1.80;;;15.30;63.90;;;;;;5085421;28;20461;-82
2022/12/27 05:50:22;;;;;;;12.07;1.83;;;15.40;63.90;;;;;;5098591;28;20040;-79
2022/12/27 05:52:47;;;;;;;14.02;2.17;;;15.40;64.10;;;;;;5098292;28;20051;-78
2022/12/27 05:55:13;;;;;;;11.10;2.22;;;15.50;64.10;;;;;;5098513;28;20035;-77
2022/12/27 05:57:39;;;;;;;11.73;1.65;;;15.50;64.30;;;;;;5097027;28;20044;-79
2022/12/27 06:00:05;;;;;;;21.33;2.55;;;15.50;64.40;;;;;;5082785;28;20080;-79
2022/12/27 06:02:31;;;;;;;14.05;2.03;;;15.50;64.50;;;;;;5098057;28;20111;-80
2022/12/27 06:04:57;;;;;;;12.43;2.40;;;15.60;64.80;;;;;;5063953;28;20197;-81
2022/12/27 06:07:22;;;;;;;14.55;2.47;;;15.70;64.80;;;;;;5076742;28;20079;-79
2022/12/27 06:09:48;;;;;;;16.50;2.22;;;15.70;65.20;;;;;;5116633;28;20416;-78
2022/12/27 06:12:14;;;;;;;14.25;1.60;;;15.70;64.90;;;;;;5100540;28;20043;-79
2022/12/27 06:14:40;;;;;;;14.00;2.45;;;15.60;63.90;;;;;;5087082;28;20048;-79
2022/12/27 06:17:06;;;;;;;15.52;2.30;;;15.60;64.10;;;;;;5097700;28;20055;-82
2022/12/27 06:19:32;;;;;;;12.90;1.77;;;15.50;63.80;;;;;;5079754;28;20394;-79
2022/12/27 06:21:58;;;;;;;13.73;2.40;;;15.40;64.20;;;;;;5062763;28;20109;-79
2022/12/27 06:24:24;;;;;;;11.85;1.60;;;15.40;64.40;;;;;;5085404;28;20477;-78
2022/12/27 06:27:38;;;;;;;11.93;2.05;;;15.40;63.80;;;;;;5089206;28;20039;-83
2022/12/27 06:30:14;;;;;;;13.48;2.05;;;15.40;62.20;;;;;;5055083;28;20109;-79
2022/12/27 06:32:40;;;;;;;6.95;1.42;;;15.30;60.90;;;;;;5086061;28;20099;-78
2022/12/27 06:35:06;;;;;;;10.30;2.08;;;15.30;58.80;;;;;;5069757;28;20045;-78
2022/12/27 06:37:32;;;;;;;8.63;1.50;;;15.20;58.30;;;;;;5065303;28;20111;-80
2022/12/27 06:39:57;;;;;;;5.53;1.40;;;15.20;57.80;;;;;;5091160;28;20186;-80
2022/12/27 06:42:23;;;;;;;7.60;2.00;;;15.10;56.70;;;;;;5088506;28;20041;-77
2022/12/27 06:44:52;;;;;;;8.50;1.75;;;15.00;55.40;;;;;;5087097;28;20047;-82
2022/12/27 06:47:18;;;;;;;10.95;1.92;;;14.90;54.90;;;;;;5069908;28;20059;-80
2022/12/27 06:49:43;;;;;;;8.68;1.50;;;14.80;55.20;;;;;;5085781;28;20036;-82
2022/12/27 06:52:09;;;;;;;10.65;1.98;;;14.70;55.50;;;;;;5069319;28;20102;-81
2022/12/27 06:54:35;;;;;;;7.97;1.73;;;14.70;56.10;;;;;;5078571;28;20058;-79
2022/12/27 06:57:01;;;;;;;7.68;1.90;;;14.60;56.50;;;;;;5097409;28;20091;-79
2022/12/27 06:59:26;;;;;;;11.27;2.10;;;14.50;57.10;;;;;;5096466;28;20400;-80
2022/12/27 07:01:52;;;;;;;14.63;1.50;;;14.50;57.80;;;;;;5097396;28;20079;-80
2022/12/27 07:04:18;;;;;;;12.02;2.30;;;14.50;58.50;;;;;;5079447;28;20096;-78
2022/12/27 07:06:43;;;;;;;12.55;2.03;;;14.40;58.90;;;;;;5097338;28;20036;-80
2022/12/27 07:09:09;;;;;;;16.45;1.95;;;14.40;59.10;;;;;;5075313;28;20121;-78
2022/12/27 07:11:36;;;;;;;15.20;2.10;;;14.40;59.50;;;;;;5076436;28;20443;-77
2022/12/27 07:14:02;;;;;;;9.50;1.65;;;14.40;59.80;;;;;;5059091;28;20052;-76
2022/12/27 07:16:29;;;;;;;12.10;2.30;;;14.60;60.00;;;;;;5058948;28;20094;-77
2022/12/27 07:18:56;;;;;;;7.43;1.50;;;14.70;56.90;;;;;;5076549;28;20328;-77
2022/12/27 07:21:24;;;;;;;13.93;2.55;;;14.40;59.20;;;;;;5076926;28;20120;-76
2022/12/27 07:23:50;;;;;;;11.27;2.10;;;14.60;60.00;;;;;;5075896;28;20059;-79
2022/12/27 07:26:20;;;;;;;9.60;1.50;;;14.70;60.00;;;;;;5093390;28;20048;-77
2022/12/27 07:28:46;;;;;;;7.68;2.33;;;14.80;59.90;;;;;;5096740;28;20067;-79
2022/12/27 07:31:15;;;;;;;9.98;1.67;;;15.00;59.90;;;;;;5096937;28;20148;-77
2022/12/27 07:33:41;;;;;;;7.97;1.67;;;15.10;59.90;;;;;;5091473;28;20044;-79
2022/12/27 07:36:10;;;;;;;10.23;2.22;;;15.10;60.00;;;;;;5076324;28;20059;-81
2022/12/27 07:38:35;;;;;;;10.07;1.73;;;15.20;59.40;;;;;;5076579;28;20496;-80
2022/12/27 07:41:02;;;;;;;14.32;2.83;;;15.20;58.00;;;;;;5063020;28;20090;-78
2022/12/27 07:43:32;;;;;;;13.00;2.30;;;15.10;56.70;;;;;;5095530;28;20059;-78
2022/12/27 07:46:06;;;;;;;15.77;2.95;;;15.10;56.00;;;;;;5095912;28;20466;-79
2022/12/27 07:48:32;;;;;;;12.32;2.25;;;15.20;56.40;;;;;;5097023;28;20076;-81
2022/12/27 07:51:04;;;;;;;19.88;2.33;;;15.00;57.10;;;;;;5078577;28;20044;-80
2022/12/27 07:53:30;;;;;;;13.50;2.90;;;15.20;57.40;;;;;;5078809;28;20439;-81
2022/12/27 07:55:56;;;;;;;18.60;3.28;;;15.30;57.90;;;;;;5095822;28;20044;-83
2022/12/27 07:58:22;;;;;;;19.80;2.58;;;15.40;58.40;;;;;;5078246;28;20036;-81
2022/12/27 08:00:50;;;;;;;14.63;2.25;;;15.50;58.60;;;;;;5093054;28;20105;-80
2022/12/27 08:03:17;;;;;;;14.95;3.20;;;15.50;58.70;;;;;;5094146;28;20044;-78
2022/12/27 08:05:52;;;;;;;17.75;2.25;;;15.60;58.80;;;;;;5095744;28;20040;-81
2022/12/27 08:08:22;;;;;;;13.75;2.30;;;15.60;58.30;;;;;;5077891;28;20048;-81
2022/12/27 08:10:48;;;;;;;15.75;2.00;;;15.70;59.30;;;;;;5077982;28;20120;-80
2022/12/27 08:13:14;;;;;;;17.75;2.47;;;15.70;59.40;;;;;;5094491;28;20051;-80
2022/12/27 08:15:41;;;;;;;23.10;2.13;;;15.80;59.60;;;;;;5061386;28;20446;-78
2022/12/27 08:18:07;;;;;;;18.83;3.25;;;15.80;59.20;;;;;;5095610;28;20091;-81
2022/12/27 08:20:33;;;;;;;19.17;2.40;;;15.40;57.10;;;;;;5077667;28;20043;-78
2022/12/27 08:22:58;;;;;;;19.70;3.53;;;15.50;59.90;;;;;;5074029;28;20094;-79
2022/12/27 08:25:24;;;;;;;17.92;2.95;;;15.70;60.10;;;;;;5075263;28;20040;-80
2022/12/27 08:27:50;;;;;;;15.82;2.38;;;15.80;60.00;;;;;;5075349;28;20119;-82
2022/12/27 08:30:16;;;;;;;16.67;2.75;;;15.80;60.00;;;;;;5075085;28;20487;-80
2022/12/27 08:32:42;;;;;;;20.90;2.58;;;15.90;60.00;;;;;;5069922;28;20484;-76
2022/12/27 08:35:07;;;;;;;17.23;3.10;;;15.90;60.00;;;;;;5077647;28;20455;-76
2022/12/27 08:37:33;;;;;;;13.43;2.15;;;16.00;60.10;;;;;;5077571;28;20055;-74
2022/12/27 08:39:59;;;;;;;18.00;3.33;;;15.90;59.00;;;;;;5095623;28;20118;-75
2022/12/27 08:42:25;;;;;;;17.90;2.35;;;15.90;55.80;;;;;;5086237;28;20048;-77
2022/12/27 08:44:50;;;;;;;18.88;2.55;;;15.70;54.70;;;;;;5075244;28;20052;-74
2022/12/27 08:47:18;;;;;;;11.75;2.35;;;15.50;54.60;;;;;;5058114;28;20114;-74
2022/12/27 08:49:44;;;;;;;15.50;3.50;;;15.50;54.90;;;;;;5057732;28;20076;-72
2022/12/27 08:52:10;;;;;;;9.15;1.88;;;15.40;54.00;;;;;;5081812;28;20050;-77
2022/12/27 08:54:36;;;;;;;9.32;2.15;;;15.30;54.10;;;;;;5095214;28;20111;-76
2022/12/27 08:57:01;;;;;;;11.40;2.15;;;15.20;53.70;;;;;;5077349;28;20505;-75
2022/12/27 08:59:27;;;;;;;8.13;1.73;;;15.20;53.50;;;;;;5095448;28;20355;-78
2022/12/27 09:01:53;;;;;;;9.48;1.80;;;15.20;53.60;;;;;;5090487;28;20384;-77
2022/12/27 09:04:18;;;;;;;10.55;2.42;;;15.10;53.70;;;;;;5074942;28;20055;-75
2022/12/27 09:06:44;;;;;;;7.40;1.90;;;15.10;54.00;;;;;;5074745;28;20120;-76
2022/12/27 09:09:10;;;;;;;9.52;1.63;;;15.10;54.20;;;;;;5075221;28;20040;-78
2022/12/27 09:11:36;;;;;;;6.70;1.83;;;15.10;54.40;;;;;;5076795;28;20051;-77
2022/12/27 09:14:03;;;;;;;10.48;2.53;;;15.10;54.50;;;;;;5079623;28;20044;-76
2022/12/27 09:16:30;;;;;;;6.10;1.50;;;15.10;54.50;;;;;;5081740;28;20083;-78
2022/12/27 09:18:58;;;;;;;10.77;1.83;;;15.10;54.70;;;;;;5081446;28;20123;-76
2022/12/27 09:21:26;;;;;;;7.43;2.20;;;15.00;54.70;;;;;;5081234;28;20048;-76
2022/12/27 09:23:53;;;;;;;5.97;1.58;;;15.00;54.90;;;;;;5075904;28;20052;-76
2022/12/27 09:26:21;;;;;;;7.18;1.50;;;15.00;55.20;;;;;;5095982;28;20051;-77
2022/12/27 09:28:48;;;;;;;6.38;1.70;;;15.00;55.40;;;;;;5081921;28;20063;-76
2022/12/27 09:31:15;;;;;;;9.05;1.73;;;14.90;55.40;;;;;;5098789;28;20186;-77
2022/12/27 09:33:42;;;;;;;10.27;1.70;;;14.90;55.50;;;;;;5097769;28;20579;-76
2022/12/27 09:36:10;;;;;;;6.70;1.88;;;14.90;55.90;;;;;;5098926;28;20051;-76
2022/12/27 09:38:37;;;;;;;8.82;1.70;;;14.90;56.00;;;;;;5098837;28;20358;-77
2022/12/27 09:41:11;;;;;;;5.90;1.60;;;14.60;56.10;;;;;;5096280;28;20361;-77
2022/12/27 09:43:55;;;;;;;6.45;1.60;;;14.10;56.00;;;;;;5078425;28;20045;-75
2022/12/27 09:46:25;;;;;;;10.23;2.05;;;13.80;56.80;;;;;;5079090;28;20071;-77
2022/12/27 09:48:53;;;;;;;8.90;1.52;;;13.90;56.20;;;;;;5078598;28;20478;-78
2022/12/27 09:51:21;;;;;;;5.68;2.08;;;13.80;52.80;;;;;;5078294;28;20450;-78
2022/12/27 09:54:05;;;;;;;12.45;2.05;;;13.60;52.30;;;;;;5097141;28;20048;-80
2022/12/27 09:56:33;;;;;;;13.00;1.92;;;13.30;54.40;;;;;;5098066;28;20139;-78
2022/12/27 09:59:28;;;;;;;10.05;1.80;;;13.20;55.50;;;;;;5098392;28;20044;-78
2022/12/27 10:01:53;;;;;;;6.97;1.65;;;13.10;56.50;;;;;;5094817;28;20141;-78
2022/12/27 10:04:19;;;;;;;5.25;1.63;;;13.00;57.00;;;;;;5061138;28;20086;-78
2022/12/27 10:06:48;;;;;;;23.25;2.92;;;13.00;57.70;;;;;;5060190;28;20123;-78
2022/12/27 10:09:16;;;;;;;4.32;1.13;;;12.80;57.10;;;;;;5077941;28;20371;-76
2022/12/27 10:11:48;;;;;;;8.05;1.58;;;12.80;58.10;;;;;;5078919;28;20048;-78
2022/12/27 10:14:20;;;;;;;6.85;1.63;;;12.90;58.60;;;;;;5098389;28;20044;-78
2022/12/27 10:16:57;;;;;;;9.85;2.03;;;13.00;59.00;;;;;;5080198;28;20047;-79
2022/12/27 10:20:11;;;;;;;6.57;1.35;;;13.20;59.30;;;;;;5080600;28;20048;-78
2022/12/27 10:22:46;;;;;;;7.43;1.35;;;13.40;59.50;;;;;;5005530;28;20063;-77
2022/12/27 10:25:14;;;;;;;8.57;2.05;;;13.50;59.60;;;;;;5076709;28;20504;-78
2022/12/27 10:27:40;;;;;;;4.80;1.40;;;13.50;59.70;;;;;;5077850;28;20044;-76
2022/12/27 10:30:19;;;;;;;7.68;1.77;;;13.60;59.80;;;;;;5077493;28;20080;-78
2022/12/27 10:32:46;;;;;;;11.00;2.85;;;13.70;59.30;;;;;;5086940;28;20040;-80
2022/12/27 10:35:17;;;;;;;12.55;2.13;;;13.70;58.70;;;;;;5098508;28;20051;-81
2022/12/27 10:37:44;;;;;;;7.68;1.52;;;13.70;58.50;;;;;;5097093;28;20044;-76
2022/12/27 10:40:48;;;;;;;5.03;1.60;;;13.70;58.90;;;;;;5097386;28;20104;-77
2022/12/27 10:43:17;;;;;;;;;;;13.80;58.40;;;;;;5077285;28;20043;-75
2022/12/27 10:45:42;;;;;;;9.43;2.25;;;13.90;58.50;;;;;;5076973;28;20746;-72
2022/12/27 10:48:15;;;;;;;12.15;1.80;;;14.10;58.80;;;;;;5077076;28;20091;-73
2022/12/27 10:50:57;;;;;;;9.75;1.48;;;14.20;59.10;;;;;;5076902;28;20041;-78
2022/12/27 10:53:36;;;;;;;11.77;1.90;;;14.40;59.50;;;;;;5077919;28;20376;-78
2022/12/27 10:56:29;;;;;;;10.05;1.83;;;14.50;59.50;;;;;;5042391;28;20060;-80
2022/12/27 10:59:12;;;;;;;11.60;2.20;;;14.60;60.00;;;;;;5060119;28;20344;-80
2022/12/27 11:01:38;;;;;;;10.45;2.20;;;14.70;60.10;;;;;;5060038;28;20458;-80
2022/12/27 11:04:17;;;;;;;10.23;1.90;;;14.80;60.10;;;;;;5077328;28;20113;-80
2022/12/27 11:06:45;;;;;;;13.07;2.10;;;14.90;60.50;;;;;;5076885;28;20048;-77
2022/12/27 11:09:35;;;;;;;11.65;1.30;;;14.90;60.40;;;;;;5096826;28;20035;-81
2022/12/27 11:12:13;;;;;;;8.10;2.20;;;14.90;60.80;;;;;;5097263;28;20354;-75
2022/12/27 11:14:40;;;;;;;14.40;1.63;;;14.80;60.80;;;;;;5097185;28;20044;-78
2022/12/27 11:17:12;;;;;;;16.02;2.13;;;14.90;60.90;;;;;;5096278;28;20373;-77
2022/12/27 11:19:45;;;;;;;8.88;1.83;;;15.00;60.90;;;;;;5096743;28;20056;-79
2022/12/27 11:22:12;;;;;;;10.23;1.90;;;15.10;61.00;;;;;;5096979;28;20048;-78
2022/12/27 11:24:47;;;;;;;9.20;2.58;;;15.20;60.90;;;;;;5079988;28;20293;-79
2022/12/27 11:27:24;;;;;;;5.88;1.80;;;15.40;61.00;;;;;;5075830;28;20062;-80
2022/12/27 11:29:52;;;;;;;11.07;2.47;;;15.50;60.90;;;;;;5076288;28;20084;-79
2022/12/27 11:32:22;;;;;;;11.85;1.48;;;15.60;60.80;;;;;;5076353;28;20052;-78
2022/12/27 11:34:49;;;;;;;7.97;1.85;;;15.70;60.80;;;;;;5061684;28;20052;-76
2022/12/27 11:37:18;;;;;;;8.88;1.85;;;15.80;60.70;;;;;;5074023;28;20116;-77
2022/12/27 11:39:49;;;;;;;11.45;2.15;;;15.90;60.60;;;;;;5076446;28;20449;-78
2022/12/27 11:42:38;;;;;;;20.60;3.63;;;15.90;59.90;;;;;;5076482;28;20033;-79
2022/12/27 11:45:27;;;;;;;10.77;2.10;;;15.90;59.90;;;;;;5075611;28;20390;-80
2022/12/27 11:48:01;;;;;;;9.63;2.17;;;15.90;59.90;;;;;;5058726;28;20044;-80
2022/12/27 11:50:27;;;;;;;7.93;2.13;;;15.90;60.10;;;;;;5075980;28;20098;-78
2022/12/27 11:53:19;;;;;;;13.77;2.25;;;16.00;60.10;;;;;;5075968;28;20092;-80
2022/12/27 11:56:18;;;;;;;11.77;2.60;;;16.00;60.20;;;;;;5036832;28;20052;-77
2022/12/27 11:58:53;;;;;;;22.10;2.67;;;16.00;60.50;;;;;;5075790;28;20421;-76
2022/12/27 12:02:00;;;;;;;19.08;3.15;;;16.10;60.50;;;;;;5075724;28;20056;-82
2022/12/27 12:04:44;;;;;;;13.57;1.95;;;16.00;59.60;;;;;;5030401;28;20337;-75
2022/12/27 12:07:38;;;;;;;19.92;3.42;;;16.00;60.70;;;;;;5089430;28;20048;-79
2022/12/27 12:10:37;;;;;;;20.05;2.33;;;16.00;60.80;;;;;;5095528;28;20109;-78
2022/12/27 12:13:11;;;;;;;29.77;3.33;;;15.60;56.80;;;;;;5078498;28;20115;-76
2022/12/27 12:15:45;;;;;;;20.50;2.25;;;15.50;60.80;;;;;;5096183;28;20044;-74
2022/12/27 12:18:30;;;;;;;15.75;2.72;;;15.60;61.50;;;;;;5070200;28;20067;-74
2022/12/27 12:21:32;;;;;;;20.35;2.40;;;15.40;59.90;;;;;;5075236;28;20041;-75
2022/12/27 12:24:19;;;;;;;20.25;2.92;;;15.60;62.00;;;;;;5075863;28;20036;-75
2022/12/27 12:27:11;;;;;;;21.38;2.80;;;15.70;61.50;;;;;;5075371;28;20072;-76
2022/12/27 12:30:22;;;;;;;20.83;2.30;;;15.70;60.20;;;;;;5076789;28;20051;-77
2022/12/27 12:33:21;;;;;;;16.40;2.80;;;15.70;59.80;;;;;;5095188;28;20052;-79
2022/12/27 12:35:49;;;;;;;20.63;2.47;;;15.70;59.90;;;;;;5060972;28;20043;-78
2022/12/27 12:38:38;;;;;;;14.77;2.15;;;15.80;60.20;;;;;;5073268;28;20040;-78
2022/12/27 12:41:41;;;;;;;14.93;2.25;;;16.00;60.30;;;;;;5075857;28;20063;-77
2022/12/27 12:44:34;;;;;;;15.88;2.67;;;16.10;60.60;;;;;;5075181;28;20052;-77
2022/12/27 12:47:16;;;;;;;22.23;3.03;;;16.20;60.70;;;;;;5074962;28;20036;-77
2022/12/27 12:49:52;;;;;;;16.70;3.03;;;16.20;60.70;;;;;;5074765;28;20131;-77
2022/12/27 12:52:29;;;;;;;12.85;2.22;;;16.20;60.00;;;;;;5096057;28;20386;-78
2022/12/27 12:55:17;;;;;;;17.80;2.85;;;16.20;59.60;;;;;;5095154;28;20126;-79
2022/12/27 12:58:04;;;;;;;16.25;1.80;;;16.20;58.70;;;;;;5093898;28;20202;-78
2022/12/27 13:00:42;;;;;;;18.60;2.20;;;16.10;58.70;;;;;;5057132;28;20044;-78
2022/12/27 13:03:25;;;;;;;18.58;3.17;;;16.10;59.40;;;;;;5075084;28;20064;-78
2022/12/27 13:05:54;;;;;;;16.45;2.22;;;16.00;59.90;;;;;;5057091;28;20052;-79
2022/12/27 13:08:41;;;;;;;18.80;2.58;;;16.00;60.50;;;;;;5074588;28;20041;-78
2022/12/27 13:11:36;;;;;;;18.98;2.55;;;16.00;60.90;;;;;;5075014;28;20344;-78
2022/12/27 13:14:39;;;;;;;21.88;2.80;;;15.90;61.20;;;;;;5063083;28;20046;-76
2022/12/27 13:17:23;;;;;;;18.42;2.72;;;15.80;61.30;;;;;;5084123;28;20029;-77
2022/12/27 13:20:06;;;;;;;20.80;2.38;;;15.80;61.40;;;;;;5084560;28;20674;-76
2022/12/27 13:22:59;;;;;;;21.30;2.72;;;15.80;61.60;;;;;;5085127;28;20076;-77
2022/12/27 13:25:42;;;;;;;17.58;2.85;;;15.70;61.70;;;;;;5067828;28;20044;-78
2022/12/27 13:28:23;;;;;;;11.40;1.87;;;15.70;61.60;;;;;;5084201;28;20070;-76
2022/12/27 13:31:10;;;;;;;13.40;2.28;;;15.60;61.10;;;;;;5085123;28;20282;-76
2022/12/27 13:34:16;;;;;;;15.07;2.55;;;15.60;60.10;;;;;;5065931;28;20470;-77
2022/12/27 13:37:17;;;;;;;11.43;2.33;;;15.60;59.20;;;;;;5043526;28;20056;-78
2022/12/27 13:40:07;;;;;;;10.32;2.08;;;15.60;59.00;;;;;;5084027;28;20091;-76
2022/12/27 13:42:50;;;;;;;10.63;1.77;;;15.50;58.70;;;;;;5060829;28;20044;-77
2022/12/27 13:45:41;;;;;;;8.18;1.88;;;15.40;59.10;;;;;;5064117;28;20040;-78
2022/12/27 13:48:26;;;;;;;11.07;2.22;;;15.50;58.20;;;;;;5083794;28;20036;-76
2022/12/27 13:51:09;;;;;;;;;;;15.50;58.70;;;;;;5077067;28;20141;-79
2022/12/27 13:53:50;;;;;;;9.77;1.65;;;15.60;58.70;;;;;;5094721;28;19920;-80
2022/12/27 13:56:40;;;;;;;4.70;1.98;;;15.70;59.00;;;;;;5094454;28;20059;-75
2022/12/27 13:59:23;;;;;;;6.18;1.67;;;15.70;59.30;;;;;;5084975;28;20057;-78
2022/12/27 14:01:58;;;;;;;6.57;1.55;;;15.80;59.40;;;;;;5060690;28;20095;-76
2022/12/27 14:05:00;;;;;;;10.93;1.90;;;15.90;59.50;;;;;;5077199;28;20055;-77
2022/12/27 14:07:46;;;;;;;8.57;2.33;;;15.90;59.60;;;;;;5076743;28;20098;-77
2022/12/27 14:10:54;;;;;;;9.45;1.92;;;16.00;59.70;;;;;;5066576;28;20052;-78
2022/12/27 14:13:38;;;;;;;9.23;2.00;;;16.00;59.70;;;;;;5004942;28;20042;-78
2022/12/27 14:16:14;;;;;;;8.98;1.60;;;16.20;59.70;;;;;;5071731;28;20118;-76
2022/12/27 14:19:09;;;;;;;6.03;1.35;;;16.20;59.60;;;;;;5076969;28;20055;-78
2022/12/27 14:21:58;;;;;;;5.65;1.30;;;16.30;59.30;;;;;;5077602;28;20052;-76
2022/12/27 14:24:46;;;;;;;6.32;1.70;;;16.40;59.00;;;;;;5070468;28;20462;-75
2022/12/27 14:27:44;;;;;;;6.28;1.27;;;16.30;59.10;;;;;;5086992;28;20036;-74
2022/12/27 14:30:26;;;;;;;6.07;1.60;;;16.30;58.90;;;;;;5085577;28;20127;-76
2022/12/27 14:33:16;;;;;;;7.20;1.00;;;16.30;59.00;;;;;;5087009;28;20084;-74
2022/12/27 14:35:57;;;;;;;8.88;1.33;;;16.30;59.10;;;;;;5087978;28;20105;-73
2022/12/27 14:38:58;;;;;;;9.32;1.52;;;16.30;59.30;;;;;;5087276;28;20052;-76
2022/12/27 14:41:29;;;;;;;6.22;1.67;;;16.20;59.40;;;;;;5053905;28;20481;-75
2022/12/27 14:44:30;;;;;;;7.05;1.38;;;16.20;59.70;;;;;;5086958;28;20045;-77
2022/12/27 14:47:17;;;;;;;8.70;1.60;;;16.10;60.00;;;;;;5087095;28;20470;-75
2022/12/27 14:49:42;;;;;;;5.10;1.40;;;16.10;60.10;;;;;;5086965;28;20059;-77
2022/12/27 14:52:23;;;;;;;5.95;1.52;;;16.00;60.20;;;;;;5085715;28;20121;-74
2022/12/27 14:55:33;;;;;;;6.18;1.52;;;15.90;60.30;;;;;;5085756;28;20382;-76
2022/12/27 14:58:23;;;;;;;5.72;1.35;;;15.90;60.70;;;;;;5060506;28;20048;-76
2022/12/27 15:01:01;;;;;;;7.30;1.52;;;15.90;60.80;;;;;;5085657;28;20052;-77
2022/12/27 15:03:30;;;;;;;7.65;1.13;;;15.80;60.90;;;;;;5068083;28;20052;-75